sensor_id;sensor_type;location;lat;lon;timestamp;temperature;humidity
9772;DHT22;4925;52.588;13.370;2022-11-15T00:01:52;5.90;99.90
9772;DHT22;4925;52.588;13.370;2022-11-15T00:04:18;5.90;99.90
9772;DHT22;4925;52.588;13.370;2022-11-15T00:06:43;5.90;99.90
9772;DHT22;4925;52.588;13.370;2022-11-15T00:09:09;5.90;99.90
9772;DHT22;4925;52.588;13.370;2022-11-15T00:11:35;5.80;99.90
9772;DHT22;4925;52.588;13.370;2022-11-15T00:14:00;5.80;99.90
9772;DHT22;4925;52.588;13.370;2022-11-15T00:16:28;5.80;99.90
9772;DHT22;4925;52.588;13.370;2022-11-15T00:18:53;5.80;99.90
9772;DHT22;4925;52.588;13.370;2022-11-15T00:21:19;5.80;99.90
9772;DHT22;4925;52.588;13.370;2022-11-15T00:23:45;5.70;99.90
9772;DHT22;4925;52.588;13.370;2022-11-15T00:26:12;5.70;99.90
9772;DHT22;4925;52.588;13.370;2022-11-15T00:28:38;5.70;99.90
9772;DHT22;4925;52.588;13.370;2022-11-15T00:31:08;5.70;99.90
9772;DHT22;4925;52.588;13.370;2022-11-15T00:33:34;5.60;99.90
9772;DHT22;4925;52.588;13.370;2022-11-15T00:36:08;5.60;99.90
9772;DHT22;4925;52.588;13.370;2022-11-15T00:38:39;5.60;99.90
9772;DHT22;4925;52.588;13.370;2022-11-15T00:41:06;5.60;99.90
9772;DHT22;4925;52.588;13.370;2022-11-15T00:43:33;5.60;99.90
9772;DHT22;4925;52.588;13.370;2022-11-15T00:45:59;5.60;99.90
9772;DHT22;4925;52.588;13.370;2022-11-15T00:48:25;5.60;99.90
9772;DHT22;4925;52.588;13.370;2022-11-15T00:50:51;5.60;99.90
9772;DHT22;4925;52.588;13.370;2022-11-15T00:53:16;5.60;99.90
9772;DHT22;4925;52.588;13.370;2022-11-15T00:55:42;5.60;99.90
9772;DHT22;4925;52.588;13.370;2022-11-15T00:58:08;5.60;99.90
9772;DHT22;4925;52.588;13.370;2022-11-15T01:00:34;5.60;99.90
9772;DHT22;4925;52.588;13.370;2022-11-15T01:03:01;5.60;99.90
9772;DHT22;4925;52.588;13.370;2022-11-15T01:05:27;5.60;99.90
9772;DHT22;4925;52.588;13.370;2022-11-15T01:07:57;5.60;99.90
9772;DHT22;4925;52.588;13.370;2022-11-15T01:10:23;5.60;99.90
9772;DHT22;4925;52.588;13.370;2022-11-15T01:12:49;5.50;99.90
9772;DHT22;4925;52.588;13.370;2022-11-15T01:15:15;5.50;99.90
9772;DHT22;4925;52.588;13.370;2022-11-15T01:17:41;5.50;99.90
9772;DHT22;4925;52.588;13.370;2022-11-15T01:20:07;5.50;99.90
9772;DHT22;4925;52.588;13.370;2022-11-15T01:22:33;5.50;99.90
9772;DHT22;4925;52.588;13.370;2022-11-15T01:24:59;5.50;99.90
9772;DHT22;4925;52.588;13.370;2022-11-15T01:27:24;5.40;99.90
9772;DHT22;4925;52.588;13.370;2022-11-15T01:29:51;5.50;99.90
9772;DHT22;4925;52.588;13.370;2022-11-15T01:32:17;5.40;99.90
9772;DHT22;4925;52.588;13.370;2022-11-15T01:34:43;5.40;99.90
9772;DHT22;4925;52.588;13.370;2022-11-15T01:37:09;5.40;99.90
9772;DHT22;4925;52.588;13.370;2022-11-15T01:39:34;5.40;99.90
9772;DHT22;4925;52.588;13.370;2022-11-15T01:42:00;5.30;99.90
9772;DHT22;4925;52.588;13.370;2022-11-15T01:47:00;5.30;99.90
9772;DHT22;4925;52.588;13.370;2022-11-15T01:49:27;5.40;99.90
9772;DHT22;4925;52.588;13.370;2022-11-15T01:51:55;5.30;99.90
9772;DHT22;4925;52.588;13.370;2022-11-15T01:54:23;5.30;99.90
9772;DHT22;4925;52.588;13.370;2022-11-15T01:56:53;5.30;99.90
9772;DHT22;4925;52.588;13.370;2022-11-15T01:59:22;5.30;99.90
9772;DHT22;4925;52.588;13.370;2022-11-15T02:01:48;5.30;99.90
9772;DHT22;4925;52.588;13.370;2022-11-15T02:04:17;5.30;99.90
9772;DHT22;4925;52.588;13.370;2022-11-15T02:06:44;5.40;99.90
9772;DHT22;4925;52.588;13.370;2022-11-15T02:09:12;5.50;99.90
9772;DHT22;4925;52.588;13.370;2022-11-15T02:11:38;5.40;99.90
9772;DHT22;4925;52.588;13.370;2022-11-15T02:14:05;5.40;99.90
9772;DHT22;4925;52.588;13.370;2022-11-15T02:17:01;5.40;99.90
9772;DHT22;4925;52.588;13.370;2022-11-15T02:30:36;5.30;99.90
9772;DHT22;4925;52.588;13.370;2022-11-15T02:36:02;5.20;99.90
9772;DHT22;4925;52.588;13.370;2022-11-15T02:41:23;5.10;99.90
9772;DHT22;4925;52.588;13.370;2022-11-15T02:43:57;5.10;99.90
9772;DHT22;4925;52.588;13.370;2022-11-15T02:49:47;5.00;99.90
9772;DHT22;4925;52.588;13.370;2022-11-15T02:52:17;5.00;99.90
9772;DHT22;4925;52.588;13.370;2022-11-15T02:54:52;5.00;99.90
9772;DHT22;4925;52.588;13.370;2022-11-15T02:57:43;5.00;99.90
9772;DHT22;4925;52.588;13.370;2022-11-15T03:13:27;4.90;99.90
9772;DHT22;4925;52.588;13.370;2022-11-15T03:18:57;4.90;99.90
9772;DHT22;4925;52.588;13.370;2022-11-15T03:21:24;4.90;99.90
9772;DHT22;4925;52.588;13.370;2022-11-15T03:23:54;4.90;99.90
9772;DHT22;4925;52.588;13.370;2022-11-15T03:26:23;4.90;99.90
9772;DHT22;4925;52.588;13.370;2022-11-15T03:28:53;4.90;99.90
9772;DHT22;4925;52.588;13.370;2022-11-15T03:31:22;4.90;99.90
9772;DHT22;4925;52.588;13.370;2022-11-15T03:34:10;4.90;99.90
9772;DHT22;4925;52.588;13.370;2022-11-15T03:36:38;4.90;99.90
9772;DHT22;4925;52.588;13.370;2022-11-15T03:39:07;4.90;99.90
9772;DHT22;4925;52.588;13.370;2022-11-15T03:46:47;4.80;99.90
9772;DHT22;4925;52.588;13.370;2022-11-15T03:49:25;4.80;99.90
9772;DHT22;4925;52.588;13.370;2022-11-15T03:51:53;4.70;99.90
9772;DHT22;4925;52.588;13.370;2022-11-15T03:54:21;4.70;99.90
9772;DHT22;4925;52.588;13.370;2022-11-15T03:56:47;4.70;99.90
9772;DHT22;4925;52.588;13.370;2022-11-15T03:59:12;4.70;99.90
9772;DHT22;4925;52.588;13.370;2022-11-15T04:01:38;4.70;99.90
9772;DHT22;4925;52.588;13.370;2022-11-15T04:04:04;4.70;99.90
9772;DHT22;4925;52.588;13.370;2022-11-15T04:06:29;4.80;99.90
9772;DHT22;4925;52.588;13.370;2022-11-15T04:08:55;4.80;99.90
9772;DHT22;4925;52.588;13.370;2022-11-15T04:11:21;4.70;99.90
9772;DHT22;4925;52.588;13.370;2022-11-15T04:13:46;4.80;99.90
9772;DHT22;4925;52.588;13.370;2022-11-15T04:16:12;4.80;99.90
9772;DHT22;4925;52.588;13.370;2022-11-15T04:18:37;4.80;99.90
9772;DHT22;4925;52.588;13.370;2022-11-15T04:21:03;4.80;99.90
9772;DHT22;4925;52.588;13.370;2022-11-15T04:23:47;4.80;99.90
9772;DHT22;4925;52.588;13.370;2022-11-15T04:26:31;4.80;99.90
9772;DHT22;4925;52.588;13.370;2022-11-15T04:28:57;4.80;99.90
9772;DHT22;4925;52.588;13.370;2022-11-15T04:31:41;4.90;99.90
9772;DHT22;4925;52.588;13.370;2022-11-15T04:34:07;4.80;99.90
9772;DHT22;4925;52.588;13.370;2022-11-15T04:36:33;4.90;99.90
9772;DHT22;4925;52.588;13.370;2022-11-15T04:39:17;4.90;99.90
9772;DHT22;4925;52.588;13.370;2022-11-15T04:41:42;4.90;99.90
9772;DHT22;4925;52.588;13.370;2022-11-15T04:44:08;4.80;99.90
9772;DHT22;4925;52.588;13.370;2022-11-15T04:46:35;4.80;99.90
9772;DHT22;4925;52.588;13.370;2022-11-15T04:49:00;4.80;99.90
9772;DHT22;4925;52.588;13.370;2022-11-15T04:51:26;4.80;99.90
9772;DHT22;4925;52.588;13.370;2022-11-15T04:53:52;4.80;99.90
9772;DHT22;4925;52.588;13.370;2022-11-15T04:56:17;5.50;99.90
9772;DHT22;4925;52.588;13.370;2022-11-15T04:58:43;4.80;99.90
9772;DHT22;4925;52.588;13.370;2022-11-15T05:01:13;4.70;99.90
9772;DHT22;4925;52.588;13.370;2022-11-15T05:03:40;4.70;99.90
9772;DHT22;4925;52.588;13.370;2022-11-15T05:06:25;4.70;99.90
9772;DHT22;4925;52.588;13.370;2022-11-15T05:08:50;4.70;99.90
9772;DHT22;4925;52.588;13.370;2022-11-15T05:11:16;4.70;99.90
9772;DHT22;4925;52.588;13.370;2022-11-15T05:13:42;4.60;99.90
9772;DHT22;4925;52.588;13.370;2022-11-15T05:16:07;4.60;99.90
9772;DHT22;4925;52.588;13.370;2022-11-15T05:18:33;4.60;99.90
9772;DHT22;4925;52.588;13.370;2022-11-15T05:21:07;4.60;99.90
9772;DHT22;4925;52.588;13.370;2022-11-15T05:23:33;4.60;99.90
9772;DHT22;4925;52.588;13.370;2022-11-15T05:26:00;4.60;99.90
9772;DHT22;4925;52.588;13.370;2022-11-15T05:28:25;4.60;99.90
9772;DHT22;4925;52.588;13.370;2022-11-15T05:30:51;4.60;99.90
9772;DHT22;4925;52.588;13.370;2022-11-15T05:33:17;4.60;99.90
9772;DHT22;4925;52.588;13.370;2022-11-15T05:35:48;4.60;99.90
9772;DHT22;4925;52.588;13.370;2022-11-15T05:38:15;4.60;99.90
9772;DHT22;4925;52.588;13.370;2022-11-15T05:40:41;4.60;99.90
9772;DHT22;4925;52.588;13.370;2022-11-15T05:43:07;4.50;99.90
9772;DHT22;4925;52.588;13.370;2022-11-15T05:45:34;4.50;99.90
9772;DHT22;4925;52.588;13.370;2022-11-15T05:48:01;4.50;99.90
9772;DHT22;4925;52.588;13.370;2022-11-15T05:50:29;4.40;99.90
9772;DHT22;4925;52.588;13.370;2022-11-15T05:52:56;4.50;99.90
9772;DHT22;4925;52.588;13.370;2022-11-15T05:55:22;4.50;99.90
9772;DHT22;4925;52.588;13.370;2022-11-15T05:57:48;4.50;99.90
9772;DHT22;4925;52.588;13.370;2022-11-15T06:00:13;4.50;99.90
9772;DHT22;4925;52.588;13.370;2022-11-15T06:02:39;4.50;99.90
9772;DHT22;4925;52.588;13.370;2022-11-15T06:05:05;4.50;99.90
9772;DHT22;4925;52.588;13.370;2022-11-15T06:07:31;4.50;99.90
9772;DHT22;4925;52.588;13.370;2022-11-15T06:09:56;4.50;99.90
9772;DHT22;4925;52.588;13.370;2022-11-15T06:12:22;4.50;99.90
9772;DHT22;4925;52.588;13.370;2022-11-15T06:14:49;4.50;99.90
9772;DHT22;4925;52.588;13.370;2022-11-15T06:17:15;4.60;99.90
9772;DHT22;4925;52.588;13.370;2022-11-15T06:19:40;4.60;99.90
9772;DHT22;4925;52.588;13.370;2022-11-15T06:22:06;4.60;99.90
9772;DHT22;4925;52.588;13.370;2022-11-15T06:24:32;4.90;99.90
9772;DHT22;4925;52.588;13.370;2022-11-15T06:26:57;4.90;99.90
9772;DHT22;4925;52.588;13.370;2022-11-15T06:29:24;5.00;99.90
9772;DHT22;4925;52.588;13.370;2022-11-15T06:31:50;5.10;99.90
9772;DHT22;4925;52.588;13.370;2022-11-15T06:36:41;5.30;99.90
9772;DHT22;4925;52.588;13.370;2022-11-15T06:39:07;6.70;99.90
9772;DHT22;4925;52.588;13.370;2022-11-15T06:41:36;5.40;99.90
9772;DHT22;4925;52.588;13.370;2022-11-15T06:44:02;5.40;99.90
9772;DHT22;4925;52.588;13.370;2022-11-15T06:46:28;5.40;99.90
9772;DHT22;4925;52.588;13.370;2022-11-15T06:48:54;5.40;99.90
9772;DHT22;4925;52.588;13.370;2022-11-15T06:51:20;5.30;99.90
9772;DHT22;4925;52.588;13.370;2022-11-15T06:53:45;5.30;99.90
9772;DHT22;4925;52.588;13.370;2022-11-15T06:56:11;5.30;99.90
9772;DHT22;4925;52.588;13.370;2022-11-15T06:58:37;5.30;99.90
9772;DHT22;4925;52.588;13.370;2022-11-15T07:01:08;5.20;99.90
9772;DHT22;4925;52.588;13.370;2022-11-15T07:03:35;5.20;99.90
9772;DHT22;4925;52.588;13.370;2022-11-15T07:06:01;5.20;99.90
9772;DHT22;4925;52.588;13.370;2022-11-15T07:08:28;5.30;99.90
9772;DHT22;4925;52.588;13.370;2022-11-15T07:10:55;5.30;99.90
9772;DHT22;4925;52.588;13.370;2022-11-15T07:13:27;5.40;99.90
9772;DHT22;4925;52.588;13.370;2022-11-15T07:15:53;5.40;99.90
9772;DHT22;4925;52.588;13.370;2022-11-15T07:18:20;5.40;99.90
9772;DHT22;4925;52.588;13.370;2022-11-15T07:20:46;5.50;99.90
9772;DHT22;4925;52.588;13.370;2022-11-15T07:23:11;5.50;99.90
9772;DHT22;4925;52.588;13.370;2022-11-15T07:25:37;5.60;99.90
9772;DHT22;4925;52.588;13.370;2022-11-15T07:28:03;5.60;99.90
9772;DHT22;4925;52.588;13.370;2022-11-15T07:30:29;5.70;99.90
9772;DHT22;4925;52.588;13.370;2022-11-15T07:32:59;5.80;99.90
9772;DHT22;4925;52.588;13.370;2022-11-15T07:35:27;5.80;99.90
9772;DHT22;4925;52.588;13.370;2022-11-15T07:38:02;5.80;99.90
9772;DHT22;4925;52.588;13.370;2022-11-15T07:40:30;5.90;99.90
9772;DHT22;4925;52.588;13.370;2022-11-15T07:43:05;5.90;99.90
9772;DHT22;4925;52.588;13.370;2022-11-15T07:45:32;6.00;99.90
9772;DHT22;4925;52.588;13.370;2022-11-15T07:48:01;5.90;99.90
9772;DHT22;4925;52.588;13.370;2022-11-15T07:50:27;6.00;99.90
9772;DHT22;4925;52.588;13.370;2022-11-15T07:52:58;6.90;99.90
9772;DHT22;4925;52.588;13.370;2022-11-15T07:55:24;7.10;99.90
9772;DHT22;4925;52.588;13.370;2022-11-15T07:57:50;7.70;99.90
9772;DHT22;4925;52.588;13.370;2022-11-15T08:00:16;7.70;99.90
9772;DHT22;4925;52.588;13.370;2022-11-15T08:02:44;7.60;99.90
9772;DHT22;4925;52.588;13.370;2022-11-15T08:05:09;7.60;99.90
9772;DHT22;4925;52.588;13.370;2022-11-15T08:07:35;8.60;99.90
9772;DHT22;4925;52.588;13.370;2022-11-15T08:10:01;7.40;99.90
9772;DHT22;4925;52.588;13.370;2022-11-15T08:12:30;7.40;99.90
9772;DHT22;4925;52.588;13.370;2022-11-15T08:14:56;7.40;99.90
9772;DHT22;4925;52.588;13.370;2022-11-15T08:17:25;7.40;99.90
9772;DHT22;4925;52.588;13.370;2022-11-15T08:19:51;7.50;99.90
9772;DHT22;4925;52.588;13.370;2022-11-15T08:22:17;7.50;99.90
9772;DHT22;4925;52.588;13.370;2022-11-15T08:24:44;7.60;99.90
9772;DHT22;4925;52.588;13.370;2022-11-15T08:27:09;7.70;99.90
9772;DHT22;4925;52.588;13.370;2022-11-15T08:29:44;7.70;99.90
9772;DHT22;4925;52.588;13.370;2022-11-15T08:32:10;7.80;99.90
9772;DHT22;4925;52.588;13.370;2022-11-15T08:34:37;7.80;99.90
9772;DHT22;4925;52.588;13.370;2022-11-15T08:37:03;7.90;99.90
9772;DHT22;4925;52.588;13.370;2022-11-15T08:39:29;7.90;99.90
9772;DHT22;4925;52.588;13.370;2022-11-15T08:41:55;8.00;99.90
9772;DHT22;4925;52.588;13.370;2022-11-15T08:44:20;8.10;99.90
9772;DHT22;4925;52.588;13.370;2022-11-15T08:46:46;8.20;99.90
9772;DHT22;4925;52.588;13.370;2022-11-15T08:49:12;8.40;99.90
9772;DHT22;4925;52.588;13.370;2022-11-15T08:51:39;8.50;99.90
9772;DHT22;4925;52.588;13.370;2022-11-15T08:54:04;8.70;99.90
9772;DHT22;4925;52.588;13.370;2022-11-15T08:56:30;8.70;99.90
9772;DHT22;4925;52.588;13.370;2022-11-15T08:58:56;8.80;99.90
9772;DHT22;4925;52.588;13.370;2022-11-15T09:01:22;8.90;99.90
9772;DHT22;4925;52.588;13.370;2022-11-15T09:03:48;9.00;99.90
9772;DHT22;4925;52.588;13.370;2022-11-15T09:06:14;9.10;99.90
9772;DHT22;4925;52.588;13.370;2022-11-15T09:08:40;9.20;99.90
9772;DHT22;4925;52.588;13.370;2022-11-15T09:11:08;9.30;99.90
9772;DHT22;4925;52.588;13.370;2022-11-15T09:13:34;9.50;99.90
9772;DHT22;4925;52.588;13.370;2022-11-15T09:16:03;9.60;99.90
9772;DHT22;4925;52.588;13.370;2022-11-15T09:18:29;9.70;99.90
9772;DHT22;4925;52.588;13.370;2022-11-15T09:20:56;9.80;99.90
9772;DHT22;4925;52.588;13.370;2022-11-15T09:23:22;10.00;99.90
9772;DHT22;4925;52.588;13.370;2022-11-15T09:25:48;10.00;99.90
9772;DHT22;4925;52.588;13.370;2022-11-15T09:28:14;10.10;99.90
9772;DHT22;4925;52.588;13.370;2022-11-15T09:30:40;10.10;99.90
9772;DHT22;4925;52.588;13.370;2022-11-15T09:33:10;10.20;99.90
9772;DHT22;4925;52.588;13.370;2022-11-15T09:35:36;10.20;99.90
9772;DHT22;4925;52.588;13.370;2022-11-15T09:38:03;10.30;99.90
9772;DHT22;4925;52.588;13.370;2022-11-15T09:40:31;10.40;99.90
9772;DHT22;4925;52.588;13.370;2022-11-15T09:51:41;10.60;99.90
9772;DHT22;4925;52.588;13.370;2022-11-15T09:54:23;10.70;99.90
9772;DHT22;4925;52.588;13.370;2022-11-15T09:56:51;10.80;99.90
9772;DHT22;4925;52.588;13.370;2022-11-15T10:04:46;11.00;99.90
9772;DHT22;4925;52.588;13.370;2022-11-15T10:07:19;11.10;99.90
9772;DHT22;4925;52.588;13.370;2022-11-15T10:09:55;11.20;99.90
9772;DHT22;4925;52.588;13.370;2022-11-15T10:12:23;11.20;99.90
9772;DHT22;4925;52.588;13.370;2022-11-15T10:14:54;11.30;99.90
9772;DHT22;4925;52.588;13.370;2022-11-15T10:22:45;11.60;99.90
9772;DHT22;4925;52.588;13.370;2022-11-15T10:25:17;11.60;99.90
9772;DHT22;4925;52.588;13.370;2022-11-15T10:27:45;11.60;99.90
9772;DHT22;4925;52.588;13.370;2022-11-15T10:30:15;11.60;99.90
9772;DHT22;4925;52.588;13.370;2022-11-15T10:32:43;11.70;99.90
9772;DHT22;4925;52.588;13.370;2022-11-15T10:35:39;11.70;99.90
9772;DHT22;4925;52.588;13.370;2022-11-15T10:38:10;12.00;99.90
9772;DHT22;4925;52.588;13.370;2022-11-15T10:40:38;12.00;99.90
9772;DHT22;4925;52.588;13.370;2022-11-15T10:43:12;12.10;99.90
9772;DHT22;4925;52.588;13.370;2022-11-15T10:45:38;12.20;99.90
9772;DHT22;4925;52.588;13.370;2022-11-15T10:50:41;12.40;99.90
9772;DHT22;4925;52.588;13.370;2022-11-15T10:53:29;12.40;99.90
9772;DHT22;4925;52.588;13.370;2022-11-15T10:56:00;12.60;99.90
9772;DHT22;4925;52.588;13.370;2022-11-15T10:58:37;12.60;99.90
9772;DHT22;4925;52.588;13.370;2022-11-15T11:01:19;12.70;99.90
9772;DHT22;4925;52.588;13.370;2022-11-15T11:04:05;12.70;99.90
9772;DHT22;4925;52.588;13.370;2022-11-15T11:06:32;12.80;99.90
9772;DHT22;4925;52.588;13.370;2022-11-15T11:09:37;12.80;99.90
9772;DHT22;4925;52.588;13.370;2022-11-15T11:12:09;12.80;99.90
9772;DHT22;4925;52.588;13.370;2022-11-15T11:14:37;12.90;99.90
9772;DHT22;4925;52.588;13.370;2022-11-15T11:40:28;13.30;99.90
9772;DHT22;4925;52.588;13.370;2022-11-15T11:43:08;13.40;99.90
9772;DHT22;4925;52.588;13.370;2022-11-15T11:48:42;13.40;99.90
9772;DHT22;4925;52.588;13.370;2022-11-15T11:51:27;13.50;99.90
9772;DHT22;4925;52.588;13.370;2022-11-15T11:54:10;13.50;99.90
9772;DHT22;4925;52.588;13.370;2022-11-15T11:56:40;13.60;99.90
9772;DHT22;4925;52.588;13.370;2022-11-15T11:59:21;13.70;99.90
9772;DHT22;4925;52.588;13.370;2022-11-15T12:01:48;13.70;99.90
9772;DHT22;4925;52.588;13.370;2022-11-15T12:04:30;13.80;99.90
9772;DHT22;4925;52.588;13.370;2022-11-15T12:07:13;14.00;99.90
9772;DHT22;4925;52.588;13.370;2022-11-15T12:10:12;14.10;99.90
9772;DHT22;4925;52.588;13.370;2022-11-15T12:12:47;14.20;99.90
9772;DHT22;4925;52.588;13.370;2022-11-15T12:15:20;14.20;99.90
9772;DHT22;4925;52.588;13.370;2022-11-15T12:17:48;14.40;99.90
9772;DHT22;4925;52.588;13.370;2022-11-15T12:20:26;14.60;99.90
9772;DHT22;4925;52.588;13.370;2022-11-15T12:28:07;15.20;99.90
9772;DHT22;4925;52.588;13.370;2022-11-15T12:30:52;15.30;99.90
9772;DHT22;4925;52.588;13.370;2022-11-15T12:36:01;15.50;99.90
9772;DHT22;4925;52.588;13.370;2022-11-15T12:38:56;15.60;99.90
9772;DHT22;4925;52.588;13.370;2022-11-15T12:41:25;15.90;99.90
9772;DHT22;4925;52.588;13.370;2022-11-15T12:43:51;16.10;99.90
9772;DHT22;4925;52.588;13.370;2022-11-15T12:48:53;16.40;99.90
9772;DHT22;4925;52.588;13.370;2022-11-15T12:51:21;16.60;99.90
9772;DHT22;4925;52.588;13.370;2022-11-15T12:53:47;16.70;99.90
9772;DHT22;4925;52.588;13.370;2022-11-15T13:06:56;16.80;99.90
9772;DHT22;4925;52.588;13.370;2022-11-15T13:19:47;16.60;99.90
9772;DHT22;4925;52.588;13.370;2022-11-15T13:22:14;15.80;99.90
9772;DHT22;4925;52.588;13.370;2022-11-15T13:25:16;15.70;99.90
9772;DHT22;4925;52.588;13.370;2022-11-15T13:27:49;15.60;99.90
9772;DHT22;4925;52.588;13.370;2022-11-15T13:30:28;15.50;99.90
9772;DHT22;4925;52.588;13.370;2022-11-15T13:32:55;15.40;99.90
9772;DHT22;4925;52.588;13.370;2022-11-15T13:35:23;15.40;99.90
9772;DHT22;4925;52.588;13.370;2022-11-15T13:37:50;15.30;99.90
9772;DHT22;4925;52.588;13.370;2022-11-15T13:40:21;15.30;99.90
9772;DHT22;4925;52.588;13.370;2022-11-15T13:42:47;15.30;99.90
9772;DHT22;4925;52.588;13.370;2022-11-15T13:45:16;15.30;99.90
9772;DHT22;4925;52.588;13.370;2022-11-15T13:47:42;15.40;99.90
9772;DHT22;4925;52.588;13.370;2022-11-15T13:50:12;15.30;99.90
9772;DHT22;4925;52.588;13.370;2022-11-15T13:52:39;15.20;99.90
9772;DHT22;4925;52.588;13.370;2022-11-15T13:55:17;15.20;99.90
9772;DHT22;4925;52.588;13.370;2022-11-15T13:57:47;15.00;99.90
9772;DHT22;4925;52.588;13.370;2022-11-15T14:02:57;14.60;99.90
9772;DHT22;4925;52.588;13.370;2022-11-15T14:05:30;14.60;99.90
9772;DHT22;4925;52.588;13.370;2022-11-15T14:08:00;14.50;99.90
9772;DHT22;4925;52.588;13.370;2022-11-15T14:10:34;14.40;99.90
9772;DHT22;4925;52.588;13.370;2022-11-15T14:13:03;14.30;99.90
9772;DHT22;4925;52.588;13.370;2022-11-15T14:15:38;14.30;99.90
9772;DHT22;4925;52.588;13.370;2022-11-15T14:18:05;14.20;99.90
9772;DHT22;4925;52.588;13.370;2022-11-15T14:20:34;14.10;99.90
9772;DHT22;4925;52.588;13.370;2022-11-15T14:25:57;13.80;99.90
9772;DHT22;4925;52.588;13.370;2022-11-15T14:30:50;13.70;99.90
